Time;durP1;ratioP1;P1;durP2;ratioP2;P2;SDS_P1;SDS_P2;PMS_P1;PMS_P2;Temp;Humidity;BMP_temperature;BMP_pressure;BME280_temperature;BME280_humidity;BME280_pressure;Samples;Min_cycle;Max_cycle;Signal;HPM_P1;HPM_P2
2023/12/10 00:00:21;;;;;;;2.83;1.70;;;21.40;68.60;;;;;;4987405;28;20458;-66
2023/12/10 00:02:47;;;;;;;4.50;1.40;;;21.40;67.60;;;;;;4985073;28;20215;-69
2023/12/10 00:05:14;;;;;;;2.05;1.40;;;21.40;67.80;;;;;;4986584;28;20478;-68
2023/12/10 00:07:42;;;;;;;3.00;1.20;;;21.40;67.80;;;;;;4988397;28;20232;-67
2023/12/10 00:10:09;;;;;;;3.17;1.33;;;21.40;67.90;;;;;;4984477;28;20467;-68
2023/12/10 00:12:36;;;;;;;1.58;1.30;;;21.40;67.90;;;;;;4988449;28;20870;-69
2023/12/10 00:15:03;;;;;;;1.70;1.30;;;21.40;67.90;;;;;;4990076;28;20215;-68
2023/12/10 00:17:30;;;;;;;1.10;0.90;;;21.40;67.90;;;;;;4983557;28;20591;-65
2023/12/10 00:19:57;;;;;;;1.80;1.50;;;21.40;68.50;;;;;;4988004;28;20196;-69
2023/12/10 00:22:24;;;;;;;1.33;1.05;;;21.40;67.90;;;;;;4990501;28;20665;-67
2023/12/10 00:24:52;;;;;;;1.55;1.20;;;21.40;67.90;;;;;;4989184;28;20216;-68
2023/12/10 00:27:18;;;;;;;2.50;1.40;;;21.30;67.60;;;;;;4987098;28;20200;-68
2023/12/10 00:29:45;;;;;;;3.55;1.77;;;21.30;67.80;;;;;;4979953;28;20208;-68
2023/12/10 00:32:12;;;;;;;5.65;1.27;;;21.30;67.90;;;;;;4987578;28;20196;-68
2023/12/10 00:34:38;;;;;;;2.67;1.60;;;21.30;67.80;;;;;;4985330;28;20729;-67
2023/12/10 00:37:05;;;;;;;1.63;1.10;;;21.30;67.90;;;;;;4988646;28;20487;-66
2023/12/10 00:39:32;;;;;;;1.33;1.00;;;21.30;68.10;;;;;;4987534;28;20471;-66
2023/12/10 00:42:00;;;;;;;2.75;1.60;;;21.30;68.90;;;;;;4988095;28;20565;-67
2023/12/10 00:44:27;;;;;;;1.85;1.63;;;21.30;68.10;;;;;;4985966;28;20895;-67
2023/12/10 00:46:53;;;;;;;2.00;1.38;;;21.30;68.10;;;;;;4989142;28;20217;-67
2023/12/10 00:49:20;;;;;;;1.98;1.50;;;21.20;68.00;;;;;;4982899;28;20196;-65
2023/12/10 00:51:47;;;;;;;2.53;1.50;;;21.20;67.90;;;;;;4989513;28;20208;-68
2023/12/10 00:54:13;;;;;;;1.97;1.43;;;21.20;68.00;;;;;;4986960;28;20416;-66
2023/12/10 00:56:41;;;;;;;3.28;1.20;;;21.20;68.00;;;;;;4985418;28;20466;-65
2023/12/10 00:59:10;;;;;;;1.88;1.52;;;21.20;68.00;;;;;;4981307;28;20221;-68
2023/12/10 01:01:37;;;;;;;1.98;1.70;;;21.20;68.20;;;;;;4986905;28;20736;-67
2023/12/10 01:04:04;;;;;;;3.40;1.10;;;21.20;68.20;;;;;;4979095;28;20232;-67
2023/12/10 01:06:31;;;;;;;2.50;1.67;;;21.20;68.20;;;;;;4982171;28;20452;-67
2023/12/10 01:08:58;;;;;;;2.17;1.42;;;21.20;68.10;;;;;;4986345;28;20463;-67
2023/12/10 01:11:25;;;;;;;1.65;1.20;;;21.20;68.10;;;;;;4983416;28;20193;-67
2023/12/10 01:13:52;;;;;;;2.25;1.30;;;21.10;68.10;;;;;;4987166;28;20743;-64
2023/12/10 01:16:20;;;;;;;3.25;1.30;;;21.10;68.10;;;;;;4987613;28;20551;-68
2023/12/10 01:18:47;;;;;;;2.90;1.67;;;21.10;68.10;;;;;;4989638;28;20215;-68
2023/12/10 01:21:14;;;;;;;1.77;1.33;;;21.10;68.20;;;;;;4986662;28;20208;-67
2023/12/10 01:23:41;;;;;;;2.60;1.40;;;21.10;68.10;;;;;;4989117;28;20724;-69
2023/12/10 01:26:10;;;;;;;1.95;1.75;;;21.10;68.10;;;;;;4987329;28;20196;-66
2023/12/10 01:28:36;;;;;;;2.38;1.20;;;21.10;68.40;;;;;;4987004;28;20213;-69
2023/12/10 01:31:03;;;;;;;2.78;1.63;;;21.10;68.10;;;;;;4984644;28;20203;-68
2023/12/10 01:33:31;;;;;;;3.42;1.50;;;21.10;68.30;;;;;;4985490;28;20193;-67
2023/12/10 01:35:58;;;;;;;2.15;1.63;;;21.10;68.20;;;;;;4986347;28;20704;-65
2023/12/10 01:38:25;;;;;;;2.28;1.30;;;21.10;68.30;;;;;;4988838;28;20233;-67
2023/12/10 01:40:51;;;;;;;1.90;1.20;;;21.10;68.20;;;;;;4990498;28;20738;-68
2023/12/10 01:43:18;;;;;;;2.78;1.00;;;21.10;68.00;;;;;;4986090;28;20254;-66
2023/12/10 01:45:48;;;;;;;1.85;1.52;;;21.10;68.00;;;;;;4983229;28;21222;-66
2023/12/10 01:48:16;;;;;;;2.67;1.65;;;21.00;67.80;;;;;;4982610;28;20207;-68
2023/12/10 01:50:45;;;;;;;2.75;1.30;;;21.00;68.10;;;;;;4985119;28;20192;-67
2023/12/10 01:53:11;;;;;;;2.28;1.30;;;21.00;68.20;;;;;;4983846;28;20255;-68
2023/12/10 01:55:38;;;;;;;2.63;1.23;;;21.00;68.20;;;;;;4984279;28;20205;-65
2023/12/10 01:58:05;;;;;;;1.70;1.48;;;21.00;68.40;;;;;;4991065;28;20707;-66
2023/12/10 02:00:32;;;;;;;2.35;1.20;;;21.00;68.50;;;;;;4987078;28;20204;-65
2023/12/10 02:03:00;;;;;;;2.77;1.30;;;21.00;68.30;;;;;;4989922;28;20196;-68
2023/12/10 02:05:27;;;;;;;3.65;1.30;;;21.00;68.30;;;;;;4991224;28;21427;-66
2023/12/10 02:07:55;;;;;;;2.28;1.23;;;21.00;68.30;;;;;;4991068;28;20657;-68
2023/12/10 02:10:22;;;;;;;3.10;1.65;;;21.00;68.20;;;;;;4990267;28;20319;-68
2023/12/10 02:12:52;;;;;;;2.60;1.40;;;21.00;68.10;;;;;;4991917;28;20197;-67
2023/12/10 02:15:20;;;;;;;1.35;1.10;;;21.00;68.10;;;;;;4987376;28;20278;-68
2023/12/10 02:17:48;;;;;;;1.67;1.17;;;21.00;68.20;;;;;;4989379;28;20231;-67
2023/12/10 02:20:15;;;;;;;2.28;1.10;;;20.90;68.30;;;;;;4987851;28;20199;-68
2023/12/10 02:22:48;;;;;;;2.25;1.10;;;20.90;68.20;;;;;;4989047;28;20220;-69
2023/12/10 02:25:23;;;;;;;2.40;1.40;;;20.90;68.50;;;;;;4991585;28;20204;-66
2023/12/10 02:27:51;;;;;;;2.40;1.40;;;20.90;68.40;;;;;;4991858;28;20201;-68
2023/12/10 02:30:18;;;;;;;1.30;1.00;;;20.90;68.50;;;;;;4985214;28;20678;-68
2023/12/10 02:32:45;;;;;;;2.75;1.80;;;20.90;68.50;;;;;;4991277;28;20205;-66
2023/12/10 02:35:12;;;;;;;2.00;1.13;;;20.90;68.20;;;;;;4991897;28;20722;-69
2023/12/10 02:37:39;;;;;;;2.30;1.38;;;20.90;68.30;;;;;;4986118;28;20566;-66
2023/12/10 02:40:07;;;;;;;2.42;1.10;;;20.90;68.30;;;;;;4990941;28;20673;-67
2023/12/10 02:42:34;;;;;;;2.45;1.40;;;20.90;68.20;;;;;;4990704;28;20689;-68
2023/12/10 02:45:02;;;;;;;2.55;1.50;;;20.90;68.20;;;;;;4987634;28;20948;-67
2023/12/10 02:47:29;;;;;;;2.67;1.60;;;20.80;68.30;;;;;;4983974;28;20216;-67
2023/12/10 02:49:55;;;;;;;1.10;1.00;;;20.80;68.40;;;;;;4988447;28;20554;-68
2023/12/10 02:52:23;;;;;;;1.35;1.00;;;20.80;68.30;;;;;;4988634;28;20200;-68
2023/12/10 02:54:49;;;;;;;1.98;1.20;;;20.80;68.40;;;;;;4988286;28;20298;-68
2023/12/10 02:57:16;;;;;;;3.08;1.40;;;20.80;68.50;;;;;;4986318;28;20208;-68
2023/12/10 02:59:43;;;;;;;1.75;1.10;;;20.80;68.50;;;;;;4986568;28;20237;-67
2023/12/10 03:02:11;;;;;;;1.77;1.10;;;20.90;68.50;;;;;;4988297;28;20566;-67
2023/12/10 03:04:38;;;;;;;1.40;1.10;;;20.80;68.30;;;;;;4984333;28;20209;-68
2023/12/10 03:07:04;;;;;;;1.85;1.00;;;20.80;68.30;;;;;;4988350;28;20212;-67
2023/12/10 03:09:32;;;;;;;2.25;1.08;;;20.80;68.30;;;;;;4986029;28;20194;-67
2023/12/10 03:11:58;;;;;;;2.28;1.65;;;20.80;68.20;;;;;;4992694;28;20561;-67
2023/12/10 03:14:25;;;;;;;2.30;1.48;;;20.80;68.40;;;;;;4991869;28;20205;-66
2023/12/10 03:16:52;;;;;;;1.25;1.08;;;20.80;68.40;;;;;;4991741;28;20200;-68
2023/12/10 03:19:20;;;;;;;1.70;1.10;;;20.80;68.40;;;;;;4984052;28;20221;-66
2023/12/10 03:21:46;;;;;;;1.63;0.90;;;20.80;68.40;;;;;;4986191;28;20200;-66
2023/12/10 03:24:13;;;;;;;2.38;1.35;;;20.80;68.40;;;;;;4986820;28;20280;-65
2023/12/10 03:26:40;;;;;;;1.40;1.00;;;20.70;68.30;;;;;;4991875;28;20727;-69
2023/12/10 03:29:07;;;;;;;2.45;1.50;;;20.70;68.50;;;;;;4990758;28;20211;-66
2023/12/10 03:31:33;;;;;;;2.60;1.55;;;20.70;68.30;;;;;;4986973;28;20200;-68
2023/12/10 03:34:00;;;;;;;1.80;1.20;;;20.70;68.40;;;;;;4989938;28;20573;-67
2023/12/10 03:36:28;;;;;;;1.30;1.00;;;20.70;68.30;;;;;;4985682;28;20189;-68
2023/12/10 03:38:55;;;;;;;2.80;1.10;;;20.70;68.20;;;;;;4988842;28;20227;-66
2023/12/10 03:41:21;;;;;;;2.85;1.10;;;20.70;68.20;;;;;;4986854;28;20189;-67
2023/12/10 03:43:48;;;;;;;3.53;1.45;;;20.70;68.20;;;;;;4989292;28;20197;-68
2023/12/10 03:46:15;;;;;;;2.22;1.42;;;20.70;68.40;;;;;;4983094;28;20205;-66
2023/12/10 03:48:41;;;;;;;2.47;1.17;;;20.70;68.40;;;;;;4987731;28;20766;-66
2023/12/10 03:51:08;;;;;;;1.80;1.13;;;20.70;68.40;;;;;;4986723;28;20616;-66
2023/12/10 03:53:36;;;;;;;1.77;1.30;;;20.70;68.50;;;;;;4986944;28;20223;-68
2023/12/10 03:56:04;;;;;;;2.20;1.00;;;20.70;68.40;;;;;;4990308;28;20211;-67
2023/12/10 03:58:31;;;;;;;1.98;1.00;;;20.70;68.50;;;;;;4992035;28;20570;-68
2023/12/10 04:00:57;;;;;;;1.50;1.10;;;20.60;68.10;;;;;;4990369;28;20197;-67
2023/12/10 04:03:24;;;;;;;2.13;1.50;;;20.70;68.30;;;;;;4984136;28;20208;-67
2023/12/10 04:05:51;;;;;;;1.40;1.08;;;20.70;68.20;;;;;;4987869;28;20192;-66
2023/12/10 04:08:17;;;;;;;1.85;1.20;;;20.60;68.10;;;;;;4982704;28;20196;-67
2023/12/10 04:10:45;;;;;;;1.38;1.08;;;20.70;68.40;;;;;;4984706;28;20208;-68
2023/12/10 04:13:12;;;;;;;1.20;1.10;;;20.70;68.40;;;;;;4983677;28;20207;-67
2023/12/10 04:15:41;;;;;;;2.17;1.27;;;20.60;68.40;;;;;;4985305;28;20200;-68
2023/12/10 04:18:07;;;;;;;2.95;1.48;;;20.60;68.40;;;;;;4987466;28;20200;-67
2023/12/10 04:20:34;;;;;;;1.70;1.40;;;20.60;68.40;;;;;;4991445;28;20709;-68
2023/12/10 04:23:01;;;;;;;1.30;1.10;;;20.60;68.50;;;;;;4985682;28;20205;-68
2023/12/10 04:25:27;;;;;;;2.65;1.13;;;20.60;68.40;;;;;;4986635;28;20205;-65
2023/12/10 04:27:55;;;;;;;1.40;1.08;;;20.60;68.40;;;;;;4986200;28;20199;-65
2023/12/10 04:30:24;;;;;;;2.28;1.23;;;20.60;68.40;;;;;;4984959;28;20677;-67
2023/12/10 04:32:50;;;;;;;1.27;0.98;;;20.60;68.40;;;;;;4985646;28;20208;-67
2023/12/10 04:35:17;;;;;;;1.77;1.13;;;20.60;68.40;;;;;;4986822;28;20204;-67
2023/12/10 04:37:44;;;;;;;4.53;1.17;;;20.60;68.40;;;;;;4988842;28;20276;-66
2023/12/10 04:40:12;;;;;;;2.50;1.40;;;20.60;68.50;;;;;;4988320;28;20228;-67
2023/12/10 04:42:39;;;;;;;1.80;1.10;;;20.60;68.30;;;;;;4987590;28;20197;-66
2023/12/10 04:45:08;;;;;;;1.45;1.00;;;20.60;68.40;;;;;;4985860;28;20200;-65
2023/12/10 04:47:35;;;;;;;2.75;1.20;;;20.60;68.40;;;;;;4985960;28;20205;-68
2023/12/10 04:50:02;;;;;;;1.27;0.90;;;20.60;68.60;;;;;;4989245;28;20208;-67
2023/12/10 04:52:29;;;;;;;1.63;1.23;;;20.60;68.40;;;;;;4987202;28;20220;-68
2023/12/10 04:54:57;;;;;;;2.65;1.48;;;20.60;68.40;;;;;;4983296;28;20330;-67
2023/12/10 04:57:24;;;;;;;1.13;0.80;;;20.60;68.40;;;;;;4983213;28;20201;-68
2023/12/10 04:59:51;;;;;;;3.28;1.65;;;20.60;68.40;;;;;;4986086;28;20217;-67
2023/12/10 05:02:19;;;;;;;1.55;1.10;;;20.60;68.30;;;;;;4984601;28;20205;-69
2023/12/10 05:04:46;;;;;;;1.40;1.30;;;20.60;68.40;;;;;;4984378;28;20217;-67
2023/12/10 05:07:12;;;;;;;1.70;1.10;;;20.60;68.30;;;;;;4983658;28;20777;-68
2023/12/10 05:09:39;;;;;;;1.10;1.00;;;20.60;68.40;;;;;;4986216;28;20216;-68
2023/12/10 05:12:06;;;;;;;1.20;1.08;;;20.60;68.50;;;;;;4987240;28;20203;-67
2023/12/10 05:14:33;;;;;;;2.38;1.25;;;20.60;68.50;;;;;;4983286;28;21776;-67
2023/12/10 05:16:59;;;;;;;1.40;1.00;;;20.50;68.40;;;;;;4983231;28;20224;-68
2023/12/10 05:19:28;;;;;;;1.63;1.10;;;20.50;68.40;;;;;;4981649;28;20326;-66
2023/12/10 05:21:55;;;;;;;3.03;1.30;;;20.50;68.30;;;;;;4984931;28;20562;-66
2023/12/10 05:24:22;;;;;;;2.42;1.30;;;20.50;68.20;;;;;;4987836;28;20279;-68
2023/12/10 05:26:48;;;;;;;2.67;1.40;;;20.50;68.40;;;;;;4984254;28;20219;-66
2023/12/10 05:29:15;;;;;;;1.55;1.40;;;20.50;68.40;;;;;;4989195;28;20215;-67
2023/12/10 05:31:42;;;;;;;1.60;1.00;;;20.50;68.40;;;;;;4991769;28;20200;-66
2023/12/10 05:34:08;;;;;;;2.35;0.90;;;20.50;68.30;;;;;;4997475;28;21154;-66
2023/12/10 05:36:36;;;;;;;1.73;1.35;;;20.50;68.40;;;;;;4986875;28;20215;-68
2023/12/10 05:39:04;;;;;;;1.70;1.02;;;20.50;68.40;;;;;;4988725;28;20223;-66
2023/12/10 05:41:30;;;;;;;2.28;1.10;;;20.50;68.50;;;;;;4989780;28;20247;-66
2023/12/10 05:43:57;;;;;;;1.92;1.27;;;20.50;68.50;;;;;;4996556;28;20204;-65
2023/12/10 05:46:24;;;;;;;1.40;1.00;;;20.50;68.40;;;;;;4990913;28;20692;-68
2023/12/10 05:48:51;;;;;;;1.30;1.00;;;20.50;68.50;;;;;;4991431;28;20211;-66
2023/12/10 05:51:17;;;;;;;1.83;1.00;;;20.50;68.40;;;;;;4989609;28;20200;-68
2023/12/10 05:53:46;;;;;;;1.27;1.10;;;20.50;69.30;;;;;;4989191;28;20192;-65
2023/12/10 05:56:13;;;;;;;1.40;0.90;;;20.50;68.60;;;;;;4992019;28;20204;-66
2023/12/10 05:58:39;;;;;;;2.88;1.20;;;20.50;68.40;;;;;;4989280;28;20201;-67
2023/12/10 06:01:06;;;;;;;1.30;1.10;;;20.50;68.40;;;;;;4988975;28;20216;-68
2023/12/10 06:03:33;;;;;;;1.52;0.90;;;20.50;68.60;;;;;;4992457;28;20196;-67
2023/12/10 06:05:59;;;;;;;1.77;1.27;;;20.50;68.60;;;;;;4989200;28;21052;-66
2023/12/10 06:08:26;;;;;;;1.80;1.10;;;20.50;68.40;;;;;;4988736;28;20200;-68
2023/12/10 06:10:54;;;;;;;3.80;1.65;;;20.50;68.40;;;;;;4986604;28;20795;-67
2023/12/10 06:13:21;;;;;;;1.42;1.05;;;20.50;68.50;;;;;;4986527;28;20199;-65
2023/12/10 06:15:48;;;;;;;2.40;1.30;;;20.50;68.30;;;;;;4986962;28;20215;-68
2023/12/10 06:18:14;;;;;;;1.45;1.00;;;20.40;68.40;;;;;;4987782;28;20208;-67
2023/12/10 06:20:41;;;;;;;1.65;0.90;;;20.40;68.50;;;;;;4989246;28;20215;-66
2023/12/10 06:23:08;;;;;;;1.90;1.10;;;20.40;68.50;;;;;;4991143;28;20658;-66
2023/12/10 06:25:34;;;;;;;2.58;1.33;;;20.50;68.60;;;;;;4987575;28;20211;-66
2023/12/10 06:28:03;;;;;;;1.92;1.25;;;20.40;68.50;;;;;;4989897;28;21054;-69
2023/12/10 06:30:29;;;;;;;1.33;0.95;;;20.40;68.50;;;;;;4980234;28;20197;-69
2023/12/10 06:32:57;;;;;;;2.30;1.20;;;20.40;68.40;;;;;;4988666;28;20751;-69
2023/12/10 06:35:24;;;;;;;1.50;1.20;;;20.40;68.60;;;;;;4990218;28;20212;-69
2023/12/10 06:37:51;;;;;;;2.38;1.02;;;20.40;68.50;;;;;;4992860;28;20188;-69
2023/12/10 06:40:17;;;;;;;1.23;1.02;;;20.40;68.60;;;;;;4986924;28;20220;-68
2023/12/10 06:42:44;;;;;;;1.58;1.00;;;20.40;68.40;;;;;;4991738;28;20209;-66
2023/12/10 06:45:13;;;;;;;1.73;1.30;;;20.40;68.60;;;;;;4987207;28;20211;-66
2023/12/10 06:47:38;;;;;;;2.78;1.45;;;20.40;68.50;;;;;;4984790;28;20296;-68
2023/12/10 06:50:06;;;;;;;1.67;1.00;;;20.40;68.50;;;;;;4982864;28;20204;-66
2023/12/10 06:52:32;;;;;;;1.80;1.20;;;20.40;68.60;;;;;;4991258;28;20662;-66
2023/12/10 06:54:59;;;;;;;1.63;1.25;;;20.40;68.70;;;;;;4986431;28;20204;-68
2023/12/10 06:57:26;;;;;;;2.00;1.13;;;20.40;68.50;;;;;;4994979;28;20565;-68
2023/12/10 06:59:53;;;;;;;1.80;1.20;;;20.40;68.50;;;;;;4992141;28;20490;-67
2023/12/10 07:02:21;;;;;;;1.55;0.90;;;20.40;68.50;;;;;;4983460;28;20200;-66
2023/12/10 07:04:48;;;;;;;2.13;1.15;;;20.40;68.60;;;;;;4988516;28;20205;-69
2023/12/10 07:07:14;;;;;;;1.13;0.90;;;20.40;68.50;;;;;;4985920;28;20688;-67
2023/12/10 07:09:41;;;;;;;1.50;1.10;;;20.40;68.50;;;;;;4991050;28;20205;-68
2023/12/10 07:12:08;;;;;;;2.05;1.00;;;20.40;68.70;;;;;;4987971;28;20201;-71
2023/12/10 07:14:34;;;;;;;1.52;1.20;;;20.40;68.50;;;;;;4986083;28;20289;-71
2023/12/10 07:17:01;;;;;;;1.35;0.95;;;20.40;68.40;;;;;;4985343;28;20193;-71
2023/12/10 07:19:29;;;;;;;1.60;1.30;;;20.40;68.50;;;;;;4982923;28;20220;-67
2023/12/10 07:21:56;;;;;;;1.63;1.25;;;20.30;68.30;;;;;;4990842;28;20482;-70
2023/12/10 07:24:23;;;;;;;1.70;1.35;;;20.40;68.40;;;;;;4988467;28;20212;-70
2023/12/10 07:26:51;;;;;;;3.50;1.30;;;20.30;68.20;;;;;;4987387;28;20204;-70
2023/12/10 07:29:17;;;;;;;1.75;0.90;;;20.30;69.10;;;;;;4992765;28;20664;-69
2023/12/10 07:31:44;;;;;;;2.20;0.90;;;20.30;69.40;;;;;;4987289;28;20223;-68
2023/12/10 07:34:11;;;;;;;1.90;1.05;;;20.30;69.90;;;;;;4990995;28;20197;-69
2023/12/10 07:36:39;;;;;;;2.50;1.35;;;20.30;70.30;;;;;;4987871;28;20204;-70
2023/12/10 07:39:07;;;;;;;1.70;1.15;;;20.30;70.40;;;;;;4988019;28;20916;-71
2023/12/10 07:41:34;;;;;;;2.42;1.13;;;20.30;70.60;;;;;;4988631;28;20193;-71
2023/12/10 07:44:00;;;;;;;1.90;1.00;;;20.40;70.90;;;;;;4985991;28;20577;-71
2023/12/10 07:46:27;;;;;;;2.38;1.52;;;20.40;70.90;;;;;;4988777;28;20209;-71
2023/12/10 07:48:54;;;;;;;4.63;1.30;;;20.40;71.10;;;;;;4984502;28;20685;-69
2023/12/10 07:51:20;;;;;;;1.60;0.90;;;20.40;71.20;;;;;;4987633;28;20201;-71
2023/12/10 07:53:48;;;;;;;1.52;1.10;;;20.40;71.20;;;;;;4989292;28;20203;-70
2023/12/10 07:56:15;;;;;;;3.00;1.55;;;20.40;71.40;;;;;;4984371;28;20203;-71
2023/12/10 07:58:42;;;;;;;1.70;1.30;;;20.40;71.70;;;;;;4989365;28;20189;-68
2023/12/10 08:01:10;;;;;;;2.70;1.15;;;20.40;71.40;;;;;;4988831;28;20221;-75
2023/12/10 08:03:37;;;;;;;1.40;0.90;;;20.40;71.70;;;;;;4985965;28;20208;-67
2023/12/10 08:06:04;;;;;;;1.65;1.20;;;20.40;71.70;;;;;;4991377;28;20197;-72
2023/12/10 08:08:30;;;;;;;1.70;1.23;;;20.50;71.80;;;;;;4990933;28;20197;-66
2023/12/10 08:10:58;;;;;;;1.40;0.90;;;20.40;71.90;;;;;;4993531;28;20213;-75
2023/12/10 08:13:25;;;;;;;1.98;1.08;;;20.50;72.30;;;;;;4984773;28;20200;-76
2023/12/10 08:15:52;;;;;;;1.58;1.27;;;20.50;72.30;;;;;;4984843;28;20208;-74
2023/12/10 08:18:18;;;;;;;1.75;0.90;;;20.50;72.10;;;;;;4991651;28;20222;-79
2023/12/10 08:20:45;;;;;;;2.20;1.27;;;20.60;72.00;;;;;;4988108;28;20232;-74
2023/12/10 08:23:12;;;;;;;1.30;1.00;;;20.60;71.70;;;;;;4990967;28;20208;-73
2023/12/10 08:25:39;;;;;;;4.65;1.60;;;20.60;71.70;;;;;;4986665;28;20664;-69
2023/12/10 08:28:07;;;;;;;4.60;1.67;;;20.60;70.50;;;;;;4990683;28;20204;-68
2023/12/10 08:30:34;;;;;;;5.55;1.70;;;20.60;69.50;;;;;;4984756;28;20211;-70
2023/12/10 08:33:01;;;;;;;4.43;1.80;;;20.50;67.90;;;;;;4984624;28;20193;-70
2023/12/10 08:35:27;;;;;;;4.32;2.20;;;20.50;66.30;;;;;;4987843;28;20197;-75
2023/12/10 08:37:54;;;;;;;6.55;2.17;;;20.50;67.20;;;;;;4987069;28;20205;-70
2023/12/10 08:40:21;;;;;;;2.92;1.17;;;20.50;67.50;;;;;;4988388;28;20271;-73
2023/12/10 08:42:48;;;;;;;3.70;1.55;;;20.60;68.80;;;;;;4988667;28;20573;-75
2023/12/10 08:45:16;;;;;;;3.75;1.95;;;20.60;68.10;;;;;;4993030;28;20223;-70
2023/12/10 08:47:42;;;;;;;3.42;1.55;;;20.60;68.10;;;;;;4985782;28;21185;-71
2023/12/10 08:50:10;;;;;;;5.10;1.67;;;20.60;68.20;;;;;;4985403;28;20223;-75
2023/12/10 08:52:36;;;;;;;4.32;1.83;;;20.60;68.20;;;;;;4989427;28;20223;-72
2023/12/10 08:55:03;;;;;;;2.35;1.85;;;20.60;68.30;;;;;;4993121;28;20201;-73
2023/12/10 08:57:30;;;;;;;5.80;1.45;;;20.60;68.30;;;;;;4983237;28;20197;-72
2023/12/10 09:00:00;;;;;;;4.68;1.70;;;20.60;68.40;;;;;;4986844;28;21003;-71
2023/12/10 09:02:28;;;;;;;5.00;1.75;;;20.60;68.50;;;;;;4986202;28;20225;-70
2023/12/10 09:04:55;;;;;;;3.25;1.30;;;20.60;68.40;;;;;;4985572;28;20205;-71
2023/12/10 09:07:21;;;;;;;4.10;1.50;;;20.60;68.50;;;;;;4989418;28;20208;-72
2023/12/10 09:09:48;;;;;;;3.85;1.65;;;20.60;68.50;;;;;;4991454;28;20217;-71
2023/12/10 09:12:15;;;;;;;2.55;1.20;;;20.60;68.50;;;;;;4984591;28;20192;-73
2023/12/10 09:14:42;;;;;;;2.53;1.48;;;20.60;68.60;;;;;;4990002;28;20197;-73
2023/12/10 09:17:08;;;;;;;5.15;2.22;;;20.60;68.70;;;;;;4989569;28;20200;-75
2023/12/10 09:19:37;;;;;;;2.17;1.80;;;20.60;68.70;;;;;;4983065;28;20196;-72
2023/12/10 09:22:04;;;;;;;2.00;1.45;;;20.60;68.80;;;;;;4981579;28;20208;-76
2023/12/10 09:24:31;;;;;;;2.10;1.55;;;20.60;68.70;;;;;;4988970;28;20208;-72
2023/12/10 09:26:58;;;;;;;5.57;1.88;;;20.60;68.70;;;;;;4987379;28;20323;-72
2023/12/10 09:29:25;;;;;;;2.58;1.20;;;20.60;68.70;;;;;;4987209;28;21238;-74
2023/12/10 09:31:51;;;;;;;2.00;1.23;;;20.60;68.90;;;;;;4987032;28;21329;-74
2023/12/10 09:34:18;;;;;;;2.40;1.27;;;20.60;69.00;;;;;;4989135;28;20239;-75
2023/12/10 09:36:46;;;;;;;4.30;1.40;;;20.60;69.00;;;;;;4983050;28;20197;-73
2023/12/10 09:39:14;;;;;;;2.10;1.40;;;20.50;69.00;;;;;;4986664;28;20201;-67
2023/12/10 09:41:41;;;;;;;2.72;1.38;;;20.50;69.00;;;;;;4988874;28;20316;-76
2023/12/10 09:44:09;;;;;;;2.63;1.63;;;20.60;69.30;;;;;;4989462;28;20208;-76
2023/12/10 09:46:36;;;;;;;9.02;2.35;;;20.50;69.30;;;;;;4988595;28;20193;-68
2023/12/10 09:49:03;;;;;;;9.40;2.75;;;20.50;67.90;;;;;;4987595;28;20198;-68
2023/12/10 09:51:30;;;;;;;9.18;2.03;;;20.50;68.30;;;;;;4987207;28;20665;-70
2023/12/10 09:53:58;;;;;;;6.87;1.90;;;20.40;68.20;;;;;;4986659;28;20474;-68
2023/12/10 09:56:25;;;;;;;3.45;1.70;;;20.40;68.40;;;;;;4981980;28;20463;-73
2023/12/10 09:58:52;;;;;;;3.65;1.80;;;20.40;68.60;;;;;;4989424;28;20271;-82
2023/12/10 10:01:19;;;;;;;7.00;1.90;;;20.40;68.90;;;;;;4986123;28;20216;-74
2023/12/10 10:03:45;;;;;;;5.80;1.80;;;20.40;69.20;;;;;;4990521;28;20203;-70
2023/12/10 10:06:12;;;;;;;4.45;1.90;;;20.40;70.00;;;;;;4987437;28;20193;-70
2023/12/10 10:08:39;;;;;;;4.53;1.45;;;20.40;70.30;;;;;;4994972;28;20220;-75
2023/12/10 10:11:07;;;;;;;3.70;1.70;;;20.40;70.70;;;;;;4989428;28;20204;-73
2023/12/10 10:13:34;;;;;;;1.92;1.42;;;20.40;70.70;;;;;;4985463;28;20200;-68
2023/12/10 10:16:09;;;;;;;3.28;1.75;;;20.40;71.10;;;;;;4988455;28;20194;-70
2023/12/10 10:18:39;;;;;;;2.97;1.67;;;20.40;71.30;;;;;;4991184;28;21150;-71
2023/12/10 10:21:06;;;;;;;3.15;1.20;;;20.50;71.30;;;;;;4992434;28;20833;-73
2023/12/10 10:23:33;;;;;;;2.67;1.40;;;20.50;71.50;;;;;;4984978;28;20208;-68
2023/12/10 10:26:01;;;;;;;2.08;1.27;;;20.50;71.80;;;;;;4992385;28;20200;-71
2023/12/10 10:28:29;;;;;;;2.60;1.52;;;20.50;71.80;;;;;;4986671;28;20205;-74
2023/12/10 10:30:57;;;;;;;2.95;1.40;;;20.50;71.80;;;;;;4991998;28;20202;-70
2023/12/10 10:33:26;;;;;;;3.13;1.98;;;20.60;71.90;;;;;;4990675;28;20208;-74
2023/12/10 10:35:53;;;;;;;2.00;1.17;;;20.60;71.80;;;;;;4991191;28;20197;-68
2023/12/10 10:38:21;;;;;;;3.35;1.58;;;20.60;71.60;;;;;;4988393;28;20207;-67
2023/12/10 10:40:48;;;;;;;2.55;1.15;;;20.60;71.80;;;;;;4991243;28;20795;-78
2023/12/10 10:43:15;;;;;;;2.78;1.40;;;20.70;71.90;;;;;;4989822;28;20193;-67
2023/12/10 10:45:44;;;;;;;3.35;2.58;;;20.70;71.70;;;;;;4986942;28;20198;-75
2023/12/10 10:48:12;;;;;;;3.15;1.33;;;20.70;71.90;;;;;;4988977;28;20204;-68
2023/12/10 10:50:41;;;;;;;2.95;1.10;;;20.70;71.70;;;;;;4989002;28;20200;-68
2023/12/10 10:53:09;;;;;;;3.35;1.50;;;20.70;71.60;;;;;;4990191;28;20205;-69
2023/12/10 10:55:37;;;;;;;2.78;1.20;;;20.80;71.80;;;;;;4988528;28;20231;-72
2023/12/10 10:58:26;;;;;;;2.08;1.20;;;20.70;71.70;;;;;;4989360;28;20189;-72
2023/12/10 11:00:54;;;;;;;1.55;0.90;;;20.80;71.90;;;;;;4988722;28;21317;-73
2023/12/10 11:03:21;;;;;;;4.32;1.35;;;20.80;71.90;;;;;;4986479;28;20209;-73
2023/12/10 11:05:48;;;;;;;4.53;1.10;;;20.80;71.80;;;;;;4990782;28;20202;-73
2023/12/10 11:08:14;;;;;;;2.97;1.35;;;20.80;71.70;;;;;;4989062;28;20205;-68
2023/12/10 11:10:44;;;;;;;3.75;1.50;;;20.90;71.70;;;;;;4987595;28;20795;-75
2023/12/10 11:13:11;;;;;;;2.28;1.10;;;20.80;71.80;;;;;;4986511;28;20204;-72
2023/12/10 11:15:38;;;;;;;3.35;1.13;;;20.80;71.80;;;;;;4987075;28;20278;-71
2023/12/10 11:18:06;;;;;;;1.95;0.95;;;20.80;71.80;;;;;;4987363;28;20197;-72
2023/12/10 11:20:39;;;;;;;1.70;1.15;;;20.90;72.00;;;;;;4989043;28;20372;-72
2023/12/10 11:23:08;;;;;;;2.17;0.90;;;20.90;71.80;;;;;;4990730;28;20189;-70
2023/12/10 11:25:35;;;;;;;1.77;1.05;;;20.90;72.10;;;;;;4986866;28;20755;-71
2023/12/10 11:28:08;;;;;;;1.30;1.00;;;20.90;72.10;;;;;;4988218;28;20650;-72
2023/12/10 11:30:35;;;;;;;1.85;1.02;;;20.90;72.00;;;;;;4985040;28;20251;-72
2023/12/10 11:33:02;;;;;;;2.53;1.20;;;20.90;72.10;;;;;;4985996;28;20569;-69
2023/12/10 11:35:30;;;;;;;2.27;1.30;;;20.90;71.90;;;;;;4986517;28;20692;-74
2023/12/10 11:37:57;;;;;;;1.88;1.13;;;20.90;72.00;;;;;;4987171;28;20466;-77
2023/12/10 11:40:24;;;;;;;2.63;1.10;;;20.90;71.80;;;;;;4981721;28;20232;-76
2023/12/10 11:42:50;;;;;;;2.85;1.10;;;20.90;71.90;;;;;;4982225;28;20678;-71
2023/12/10 11:45:17;;;;;;;3.63;1.43;;;20.90;71.90;;;;;;4970909;28;20204;-70
2023/12/10 11:47:46;;;;;;;1.88;0.93;;;20.90;72.00;;;;;;4973866;28;20455;-71
2023/12/10 11:50:14;;;;;;;3.28;1.40;;;20.90;72.00;;;;;;4976460;28;20199;-68
2023/12/10 11:52:43;;;;;;;1.70;1.10;;;20.90;72.00;;;;;;4987829;28;20200;-71
2023/12/10 11:55:10;;;;;;;1.75;1.05;;;21.00;72.20;;;;;;4992339;28;20651;-71
2023/12/10 11:57:42;;;;;;;1.90;1.20;;;20.90;72.20;;;;;;4987991;28;20219;-71
2023/12/10 12:00:11;;;;;;;2.00;1.20;;;21.00;72.20;;;;;;4991363;28;20298;-75
2023/12/10 12:02:41;;;;;;;3.75;1.10;;;20.90;72.10;;;;;;4990052;28;20227;-76
2023/12/10 12:05:09;;;;;;;2.22;1.25;;;20.90;72.20;;;;;;4986774;28;20212;-75
2023/12/10 12:07:37;;;;;;;3.63;1.55;;;21.00;72.30;;;;;;4983899;28;20212;-69
2023/12/10 12:10:06;;;;;;;2.83;1.42;;;21.00;72.20;;;;;;4993989;28;20199;-71
2023/12/10 12:12:38;;;;;;;2.08;1.25;;;21.00;72.20;;;;;;4989930;28;20200;-68
2023/12/10 12:15:05;;;;;;;2.20;1.10;;;21.00;72.20;;;;;;4988427;28;20651;-70
2023/12/10 12:17:33;;;;;;;2.15;1.45;;;20.90;72.20;;;;;;4987360;28;20576;-66
2023/12/10 12:20:13;;;;;;;2.80;1.53;;;21.00;72.20;;;;;;4987667;28;20194;-76
2023/12/10 12:22:40;;;;;;;1.73;1.20;;;21.00;72.30;;;;;;4980635;28;20857;-81
2023/12/10 12:25:09;;;;;;;3.20;1.20;;;21.00;72.30;;;;;;4984651;28;20207;-75
2023/12/10 12:27:36;;;;;;;1.30;0.90;;;21.00;72.20;;;;;;4987759;28;20196;-70
2023/12/10 12:30:03;;;;;;;1.67;0.98;;;21.00;72.30;;;;;;4987268;28;20196;-68
2023/12/10 12:32:29;;;;;;;4.60;1.20;;;21.00;72.20;;;;;;4984254;28;20900;-68
2023/12/10 12:34:56;;;;;;;4.63;1.65;;;21.00;72.20;;;;;;4982512;28;20206;-73
2023/12/10 12:37:23;;;;;;;4.25;1.70;;;20.90;69.30;;;;;;4988568;28;20201;-73
2023/12/10 12:39:50;;;;;;;6.15;1.92;;;20.80;67.50;;;;;;4989496;28;20344;-72
2023/12/10 12:42:18;;;;;;;6.78;2.08;;;20.70;65.80;;;;;;4985093;28;20226;-76
2023/12/10 12:44:47;;;;;;;5.57;2.08;;;20.70;67.30;;;;;;4987808;28;20205;-71
2023/12/10 12:47:14;;;;;;;5.72;1.80;;;20.70;68.40;;;;;;4991588;28;20734;-70